createdAt,value
2017-06-24T00:00:41.763Z,63.12
2017-06-24T00:01:43.027Z,63.22
2017-06-24T00:02:44.300Z,63.12
2017-06-24T00:03:45.543Z,63.12
2017-06-24T00:04:46.880Z,62.74
2017-06-24T00:05:48.210Z,63.22
2017-06-24T00:06:49.553Z,62.93
2017-06-24T00:07:50.821Z,62.64
2017-06-24T00:08:52.061Z,62.26
2017-06-24T00:09:53.313Z,63.12
2017-06-24T00:10:54.571Z,63.02
2017-06-24T00:11:55.877Z,62.26
2017-06-24T00:12:57.308Z,62.35
2017-06-24T00:13:58.588Z,62.35
2017-06-24T00:14:59.853Z,61.68
2017-06-24T00:16:01.165Z,61.58
2017-06-24T00:17:02.454Z,61.19
2017-06-24T00:18:03.773Z,61.77
2017-06-24T00:19:05.111Z,61.77
2017-06-24T00:20:06.414Z,61.55
2017-06-24T00:21:07.747Z,61.65
2017-06-24T00:22:09.005Z,60.81
2017-06-24T00:23:10.269Z,60.81
2017-06-24T00:24:11.567Z,61.58
2017-06-24T00:25:12.885Z,61.55
2017-06-24T00:26:14.203Z,61.84
2017-06-24T00:27:15.474Z,61.55
2017-06-24T00:28:16.725Z,61.74
2017-06-24T00:29:17.981Z,61.65
2017-06-24T00:30:19.243Z,61.55
2017-06-24T00:31:20.522Z,61.55
2017-06-24T00:32:21.761Z,61.36
2017-06-24T00:33:23.148Z,61.94
2017-06-24T00:34:24.470Z,62.41
2017-06-24T00:35:25.721Z,62.41
2017-06-24T00:36:26.995Z,62.41
2017-06-24T00:37:28.395Z,62.23
2017-06-24T00:38:29.658Z,62.51
2017-06-24T00:39:30.934Z,63.18
2017-06-24T00:40:32.303Z,63.09
2017-06-24T00:41:33.592Z,63.18
2017-06-24T00:42:34.877Z,63.48
2017-06-24T00:43:36.166Z,63.57
2017-06-24T00:44:37.521Z,63.67
2017-06-24T00:45:38.758Z,63.86
2017-06-24T00:46:40.036Z,63.57
2017-06-24T00:47:41.317Z,63.86
2017-06-24T00:48:42.593Z,63.48
2017-06-24T00:49:43.999Z,63.86
2017-06-24T00:50:45.257Z,63.95
2017-06-24T00:51:46.560Z,63.48
2017-06-24T00:52:47.867Z,64.34
2017-06-24T00:53:49.138Z,64.05
2017-06-24T00:54:50.417Z,63.86
2017-06-24T00:55:51.858Z,64.25
2017-06-24T00:56:53.174Z,63.73
2017-06-24T00:57:54.371Z,64.22
2017-06-24T00:58:55.662Z,64.31
2017-06-24T00:59:56.882Z,64.6
2017-06-24T01:00:58.176Z,64.89
2017-06-24T01:01:59.449Z,64.98
2017-06-24T01:03:00.717Z,65.08
2017-06-24T01:04:02.019Z,65.56
2017-06-24T01:05:03.264Z,65.56
2017-06-24T01:06:04.580Z,65.46
2017-06-24T01:07:05.918Z,66.04
2017-06-24T01:08:07.166Z,65.84
2017-06-24T01:09:08.415Z,65.66
2017-06-24T01:10:09.688Z,65.37
2017-06-24T01:11:10.933Z,65.37
2017-06-24T01:12:12.243Z,65.17
2017-06-24T01:13:13.467Z,65.46
2017-06-24T01:14:14.751Z,65.75
2017-06-24T01:15:16.076Z,65.66
2017-06-24T01:16:17.471Z,65.94
2017-06-24T01:17:18.747Z,66.14
2017-06-24T01:18:20.017Z,65.56
2017-06-24T01:19:21.337Z,65.46
2017-06-24T01:20:22.589Z,65.27
2017-06-24T01:21:23.878Z,65.17
2017-06-24T01:22:25.148Z,65.14
2017-06-24T01:23:26.440Z,65.53
2017-06-24T01:24:27.717Z,65.53
2017-06-24T01:25:28.966Z,65.62
2017-06-24T01:26:30.292Z,65.72
2017-06-24T01:27:31.552Z,65.72
2017-06-24T01:28:32.834Z,65.33
2017-06-24T01:29:34.096Z,65.43
2017-06-24T01:30:35.411Z,64.95
2017-06-24T01:31:36.666Z,65.33
2017-06-24T01:32:37.989Z,65.33
2017-06-24T01:33:39.246Z,65.53
2017-06-24T01:34:40.517Z,65.53
2017-06-24T01:35:41.826Z,65.53
2017-06-24T01:36:43.161Z,65.23
2017-06-24T01:37:44.502Z,64.85
2017-06-24T01:38:45.767Z,64.85
2017-06-24T01:39:47.026Z,64.95
2017-06-24T01:40:48.301Z,64.56
2017-06-24T01:41:49.569Z,64.47
2017-06-24T01:42:50.959Z,64.56
2017-06-24T01:43:52.207Z,64.56
2017-06-24T01:44:53.596Z,64.56
2017-06-24T01:45:54.859Z,65.14
2017-06-24T01:46:56.135Z,64.56
2017-06-24T01:47:57.423Z,65.14
2017-06-24T01:48:58.755Z,64.47
2017-06-24T01:50:00.051Z,64.76
2017-06-24T01:51:01.318Z,64.66
2017-06-24T01:52:02.650Z,64.37
2017-06-24T01:53:03.978Z,65.05
2017-06-24T01:54:05.248Z,64.56
2017-06-24T01:55:06.502Z,64.34
2017-06-24T01:56:07.786Z,64.53
2017-06-24T01:57:09.065Z,64.34
2017-06-24T01:58:10.345Z,64.85
2017-06-24T01:59:11.586Z,65.01
2017-06-24T02:00:12.931Z,64.82
2017-06-24T02:01:14.329Z,64.92
2017-06-24T02:02:15.588Z,64.92
2017-06-24T02:03:16.864Z,64.82
2017-06-24T02:04:18.177Z,64.92
2017-06-24T02:05:19.474Z,65.11
2017-06-24T02:06:20.784Z,65.49
2017-06-24T02:07:22.078Z,65.3
2017-06-24T02:08:23.339Z,64.82
2017-06-24T02:09:24.608Z,65.01
2017-06-24T02:10:25.839Z,65.11
2017-06-24T02:11:27.110Z,65.69
2017-06-24T02:12:28.427Z,65.2
2017-06-24T02:13:29.674Z,65.3
2017-06-24T02:14:30.956Z,65.78
2017-06-24T02:15:32.224Z,65.49
2017-06-24T02:16:33.521Z,65.49
2017-06-24T02:17:34.862Z,65.69
2017-06-24T02:18:36.154Z,65.49
2017-06-24T02:19:37.442Z,66.07
2017-06-24T02:20:38.747Z,65.97
2017-06-24T02:21:40.022Z,66.16
2017-06-24T02:22:41.299Z,66.74
2017-06-24T02:23:42.581Z,66.26
2017-06-24T02:24:43.856Z,66.71
2017-06-24T02:25:45.096Z,66.84
2017-06-24T02:26:46.344Z,66.64
2017-06-24T02:27:47.617Z,66.55
2017-06-24T02:28:48.963Z,66.64
2017-06-24T02:29:50.246Z,66.74
2017-06-24T02:30:51.484Z,66.55
2017-06-24T02:31:52.739Z,66.16
2017-06-24T02:32:53.997Z,66.64
2017-06-24T02:33:55.255Z,66.71
2017-06-24T02:34:56.606Z,66.61
2017-06-24T02:35:57.965Z,66.42
2017-06-24T02:36:59.219Z,67
2017-06-24T02:38:00.453Z,66.9
2017-06-24T02:39:01.705Z,66.52
2017-06-24T02:40:02.970Z,66.52
2017-06-24T02:41:04.300Z,67.09
2017-06-24T02:42:05.575Z,66.61
2017-06-24T02:43:06.900Z,67
2017-06-24T02:44:08.193Z,67
2017-06-24T02:45:09.436Z,67
2017-06-24T02:46:10.703Z,67.47
2017-06-24T02:47:12.001Z,67
2017-06-24T02:48:13.231Z,67
2017-06-24T02:49:14.542Z,67.57
2017-06-24T02:50:15.826Z,67.19
2017-06-24T02:51:17.060Z,67.54
2017-06-24T02:52:18.356Z,68.02
2017-06-24T02:53:19.836Z,67.73
2017-06-24T02:54:21.009Z,68.05
2017-06-24T02:55:22.344Z,67.76
2017-06-24T02:56:23.621Z,67.96
2017-06-24T02:57:24.910Z,68.12
2017-06-24T02:58:26.210Z,67.73
2017-06-24T02:59:27.499Z,68.12
2017-06-24T03:00:28.771Z,67.92
2017-06-24T03:01:30.048Z,68.21
2017-06-24T03:02:31.295Z,67.83
2017-06-24T03:03:32.835Z,68.02
2017-06-24T03:04:34.123Z,68.21
2017-06-24T03:05:35.377Z,68.21
2017-06-24T03:06:36.626Z,68.4
2017-06-24T03:07:37.882Z,68.3
2017-06-24T03:08:39.115Z,68.12
2017-06-24T03:09:40.383Z,67.83
2017-06-24T03:10:41.785Z,68.5
2017-06-24T03:11:43.071Z,68.24
2017-06-24T03:12:44.308Z,67.92
2017-06-24T03:13:45.573Z,68.3
2017-06-24T03:14:46.844Z,68.3
2017-06-24T03:15:48.149Z,68.3
2017-06-24T03:16:49.436Z,67.83
2017-06-24T03:17:50.673Z,68.3
2017-06-24T03:18:51.944Z,68.4
2017-06-24T03:19:53.231Z,68.21
2017-06-24T03:20:54.538Z,68.3
2017-06-24T03:21:55.885Z,68.12
2017-06-24T03:22:57.026Z,68.3
2017-06-24T03:23:58.403Z,68.69
2017-06-24T03:24:59.680Z,68.98
2017-06-24T03:26:00.955Z,68.59
2017-06-24T03:27:02.294Z,69.07
2017-06-24T03:28:03.571Z,68.79
2017-06-24T03:29:04.892Z,68.5
2017-06-24T03:30:06.133Z,68.88
2017-06-24T03:31:07.431Z,68.88
2017-06-24T03:32:08.675Z,68.88
2017-06-24T03:33:09.971Z,68.79
2017-06-24T03:34:11.232Z,69.07
2017-06-24T03:35:12.658Z,69.46
2017-06-24T03:36:13.939Z,69.84
2017-06-24T03:37:15.177Z,69.74
2017-06-24T03:38:16.536Z,69.36
2017-06-24T03:39:17.827Z,69.46
2017-06-24T03:40:19.108Z,69.36
2017-06-24T03:41:20.405Z,69.36
2017-06-24T03:42:21.668Z,69.65
2017-06-24T03:43:22.937Z,69.07
2017-06-24T03:44:24.230Z,69.07
2017-06-24T03:45:25.581Z,69.65
2017-06-24T03:46:26.888Z,69.36
2017-06-24T03:47:28.183Z,69.46
2017-06-24T03:48:29.439Z,69.74
2017-06-24T03:49:30.783Z,70.61
2017-06-24T03:50:32.120Z,70.09
2017-06-24T03:51:33.388Z,70.7
2017-06-24T03:52:34.700Z,70.67
2017-06-24T03:53:35.957Z,70.38
2017-06-24T03:54:37.276Z,70.48
2017-06-24T03:55:38.593Z,70.57
2017-06-24T03:56:39.934Z,70.67
2017-06-24T03:57:41.196Z,70.67
2017-06-24T03:58:42.454Z,70.57
2017-06-24T03:59:43.703Z,71.05
2017-06-24T04:00:44.963Z,71.05
2017-06-24T04:01:46.227Z,70.96
2017-06-24T04:02:47.500Z,71.15
2017-06-24T04:03:48.840Z,71.05
2017-06-24T04:04:50.100Z,70.96
2017-06-24T04:05:51.399Z,70.96
2017-06-24T04:06:52.665Z,70.86
2017-06-24T04:07:54.081Z,70.86
2017-06-24T04:08:55.283Z,71.34
2017-06-24T04:09:56.638Z,71.44
2017-06-24T04:10:57.852Z,71.63
2017-06-24T04:11:59.113Z,70.76
2017-06-24T04:13:00.427Z,71.34
2017-06-24T04:14:01.751Z,70.96
2017-06-24T04:15:02.989Z,71.63
2017-06-24T04:16:04.251Z,71.34
2017-06-24T04:17:05.678Z,71.44
2017-06-24T04:18:06.876Z,71.72
2017-06-24T04:19:08.148Z,71.34
2017-06-24T04:20:09.432Z,71.82
2017-06-24T04:21:10.780Z,71.34
2017-06-24T04:22:12.041Z,71.44
2017-06-24T04:23:13.335Z,71.34
2017-06-24T04:24:14.701Z,71.34
2017-06-24T04:25:16.029Z,71.25
2017-06-24T04:26:17.284Z,71.34
2017-06-24T04:27:18.568Z,71.53
2017-06-24T04:28:19.827Z,71.44
2017-06-24T04:29:21.063Z,71.72
2017-06-24T04:30:22.450Z,71.82
2017-06-24T04:31:23.806Z,71.34
2017-06-24T04:32:25.010Z,71.53
2017-06-24T04:33:26.259Z,71.53
2017-06-24T04:34:27.536Z,70.96
2017-06-24T04:35:28.815Z,71.44
2017-06-24T04:36:30.127Z,70.86
2017-06-24T04:37:31.386Z,71.05
2017-06-24T04:38:32.664Z,71.15
2017-06-24T04:39:33.926Z,71.05
2017-06-24T04:40:35.210Z,71.05
2017-06-24T04:41:36.511Z,71.15
2017-06-24T04:42:37.939Z,70.76
2017-06-24T04:43:39.151Z,71.25
2017-06-24T04:44:40.458Z,71.34
2017-06-24T04:45:41.720Z,71.53
2017-06-24T04:46:42.978Z,71.44
2017-06-24T04:47:44.281Z,71.34
2017-06-24T04:48:45.562Z,70.86
2017-06-24T04:49:46.963Z,70.96
2017-06-24T04:50:48.268Z,71.53
2017-06-24T04:51:49.555Z,71.72
2017-06-24T04:52:50.810Z,71.53
2017-06-24T04:53:52.176Z,71.53
2017-06-24T04:54:53.427Z,70.96
2017-06-24T04:55:54.687Z,70.8
2017-06-24T04:56:55.985Z,70.7
2017-06-24T04:57:57.258Z,70.42
2017-06-24T04:58:58.556Z,70.23
2017-06-24T04:59:59.862Z,70.32
2017-06-24T05:01:01.133Z,70.13
2017-06-24T05:02:02.502Z,69.56
2017-06-24T05:03:03.759Z,69.84
2017-06-24T05:04:05.023Z,69.93
2017-06-24T05:05:06.318Z,69.93
2017-06-24T05:06:07.615Z,69.56
2017-06-24T05:07:08.903Z,69.93
2017-06-24T05:08:10.205Z,70.13
2017-06-24T05:09:11.515Z,70.42
2017-06-24T05:10:12.742Z,70.42
2017-06-24T05:11:14.019Z,70.13
2017-06-24T05:12:15.264Z,69.93
2017-06-24T05:13:16.601Z,69.65
2017-06-24T05:14:17.838Z,70.7
2017-06-24T05:15:19.151Z,70.42
2017-06-24T05:16:20.388Z,70.8
2017-06-24T05:17:21.664Z,70.51
2017-06-24T05:18:23.017Z,71.19
2017-06-24T05:19:24.293Z,70.9
2017-06-24T05:20:25.574Z,70.99
2017-06-24T05:21:26.861Z,71.37
2017-06-24T05:22:28.221Z,71.47
2017-06-24T05:23:29.472Z,70.9
2017-06-24T05:24:30.724Z,71.66
2017-06-24T05:25:31.989Z,70.99
2017-06-24T05:26:33.252Z,71.09
2017-06-24T05:27:34.545Z,71.19
2017-06-24T05:28:35.816Z,71.09
2017-06-24T05:29:37.098Z,70.51
2017-06-24T05:30:38.336Z,70.61
2017-06-24T05:31:39.697Z,70.61
2017-06-24T05:32:40.970Z,70.7
2017-06-24T05:33:42.211Z,70.51
2017-06-24T05:34:43.491Z,70.7
2017-06-24T05:35:44.905Z,70.8
2017-06-24T05:36:46.216Z,70.7
2017-06-24T05:37:47.497Z,71.28
2017-06-24T05:38:48.780Z,70.99
2017-06-24T05:39:50.006Z,70.42
2017-06-24T05:40:51.254Z,70.8
2017-06-24T05:41:52.565Z,70.74
2017-06-24T05:42:53.884Z,70.64
2017-06-24T05:43:55.118Z,70.26
2017-06-24T05:44:56.411Z,70.45
2017-06-24T05:45:57.695Z,70.45
2017-06-24T05:46:58.975Z,70.64
2017-06-24T05:48:00.306Z,70.45
2017-06-24T05:49:01.568Z,70.74
2017-06-24T05:50:02.912Z,70.74
2017-06-24T05:51:04.182Z,70.36
2017-06-24T05:52:05.440Z,70.26
2017-06-24T05:53:06.733Z,70.36
2017-06-24T05:54:08.044Z,70.45
2017-06-24T05:55:09.306Z,70.55
2017-06-24T05:56:10.580Z,70.61
2017-06-24T05:57:11.801Z,70.99
2017-06-24T05:58:13.069Z,71.03
2017-06-24T05:59:14.359Z,70.55
2017-06-24T06:00:15.681Z,70.7
2017-06-24T06:01:16.941Z,70.9
2017-06-24T06:02:18.242Z,70.55
2017-06-24T06:03:19.493Z,70.64
2017-06-24T06:04:20.789Z,70.55
2017-06-24T06:05:22.051Z,70.74
2017-06-24T06:06:23.354Z,70.99
2017-06-24T06:07:24.529Z,71.41
2017-06-24T06:08:25.795Z,71.51
2017-06-24T06:09:27.060Z,71.37
2017-06-24T06:10:28.316Z,71.86
2017-06-24T06:11:29.589Z,71.66
2017-06-24T06:12:31.032Z,71.22
2017-06-24T06:13:32.234Z,71.47
2017-06-24T06:14:33.541Z,71.19
2017-06-24T06:15:34.795Z,71.8
2017-06-24T06:16:36.084Z,71.61
2017-06-24T06:17:37.351Z,71.31
2017-06-24T06:18:38.645Z,71.31
2017-06-24T06:19:39.916Z,71.7
2017-06-24T06:20:41.225Z,71.7
2017-06-24T06:21:42.532Z,71.12
2017-06-24T06:22:43.957Z,71.61
2017-06-24T06:23:45.122Z,71.22
2017-06-24T06:24:46.399Z,71.61
2017-06-24T06:25:47.686Z,71.03
2017-06-24T06:26:48.944Z,71.12
2017-06-24T06:27:50.270Z,70.74
2017-06-24T06:28:51.545Z,70.55
2017-06-24T06:29:52.820Z,70.55
2017-06-24T06:30:54.066Z,70.84
2017-06-24T06:31:55.335Z,70.55
2017-06-24T06:32:56.647Z,70.55
2017-06-24T06:33:57.905Z,70.74
2017-06-24T06:34:59.123Z,70.68
2017-06-24T06:36:00.412Z,70.1
2017-06-24T06:37:01.762Z,70.01
2017-06-24T06:38:03.055Z,69.53
2017-06-24T06:39:04.309Z,69.53
2017-06-24T06:40:05.566Z,69.34
2017-06-24T06:41:06.939Z,68.7
2017-06-24T06:42:08.234Z,68.12
2017-06-24T06:43:09.489Z,68.21
2017-06-24T06:44:10.744Z,67.93
2017-06-24T06:45:12.145Z,67.93
2017-06-24T06:46:13.398Z,67.93
2017-06-24T06:47:14.773Z,67.74
2017-06-24T06:48:16.008Z,68.18
2017-06-24T06:49:17.271Z,68.47
2017-06-24T06:50:18.518Z,68.41
2017-06-24T06:51:19.787Z,67.83
2017-06-24T06:52:21.089Z,67.19
2017-06-24T06:53:22.479Z,65.75
2017-06-24T06:54:23.732Z,64.63
2017-06-24T06:55:25.041Z,63.31
2017-06-24T06:56:26.352Z,62.26
2017-06-24T06:57:27.607Z,61.8
2017-06-24T06:58:28.922Z,60.58
2017-06-24T06:59:30.187Z,59.27
2017-06-24T07:00:31.455Z,58.88
2017-06-24T07:01:32.782Z,58.11
2017-06-24T07:02:34.035Z,58.2
2017-06-24T07:03:35.348Z,58.2
2017-06-24T07:04:36.644Z,58.4
2017-06-24T07:05:37.977Z,58.78
2017-06-24T07:06:39.303Z,59.33
2017-06-24T07:07:40.570Z,59.72
2017-06-24T07:08:41.977Z,59.52
2017-06-24T07:09:43.229Z,59.72
2017-06-24T07:10:44.672Z,60.2
2017-06-24T07:11:45.968Z,60.17
2017-06-24T07:12:47.246Z,60.3
2017-06-24T07:13:48.573Z,60.27
2017-06-24T07:14:49.915Z,60.36
2017-06-24T07:15:51.122Z,61.13
2017-06-24T07:16:52.388Z,61.61
2017-06-24T07:17:53.658Z,61.22
2017-06-24T07:18:54.948Z,61.42
2017-06-24T07:19:56.202Z,61.61
2017-06-24T07:20:57.457Z,61.71
2017-06-24T07:21:58.772Z,61.13
2017-06-24T07:23:00.064Z,60.68
2017-06-24T07:24:01.321Z,60.3
2017-06-24T07:25:02.603Z,60.1
2017-06-24T07:26:03.856Z,60.1
2017-06-24T07:27:05.163Z,60
2017-06-24T07:28:06.552Z,59.52
2017-06-24T07:29:07.809Z,59.52
2017-06-24T07:30:09.093Z,59.65
2017-06-24T07:31:10.408Z,59.33
2017-06-24T07:32:11.674Z,58.95
2017-06-24T07:33:12.977Z,59.36
2017-06-24T07:34:14.243Z,59.07
2017-06-24T07:35:15.556Z,59.27
2017-06-24T07:36:16.801Z,58.33
2017-06-24T07:37:18.220Z,58.14
2017-06-24T07:38:19.638Z,58.04
2017-06-24T07:39:20.846Z,56.88
2017-06-24T07:40:22.124Z,55.59
2017-06-24T07:41:23.389Z,54.36
2017-06-24T07:42:24.660Z,52.55
2017-06-24T07:43:26.049Z,50.93
2017-06-24T07:44:27.309Z,50.76
2017-06-24T07:45:28.609Z,50.38
2017-06-24T07:46:29.862Z,50.28
2017-06-24T07:47:31.177Z,50.28
2017-06-24T07:48:32.575Z,49.73
2017-06-24T07:49:33.913Z,49.51
2017-06-24T07:50:35.180Z,49.51
2017-06-24T07:51:36.479Z,49.15
2017-06-24T07:52:37.790Z,49.41
2017-06-24T07:53:39.070Z,50.35
2017-06-24T07:54:40.495Z,51.1
2017-06-24T07:55:41.766Z,51.75
2017-06-24T07:56:43.031Z,52.72
2017-06-24T07:57:44.286Z,53.27
2017-06-24T07:58:45.565Z,54.14
2017-06-24T07:59:46.842Z,53.75
2017-06-24T08:00:48.250Z,54.05
2017-06-24T08:01:49.526Z,54.43
2017-06-24T08:02:50.785Z,53.56
2017-06-24T08:03:52.048Z,54.05
2017-06-24T08:04:53.315Z,54.24
2017-06-24T08:05:54.694Z,54.21
2017-06-24T08:06:56.006Z,54.98
2017-06-24T08:07:57.258Z,54.62
2017-06-24T08:08:58.507Z,54.98
2017-06-24T08:09:59.762Z,55.27
2017-06-24T08:11:01.027Z,55.36
2017-06-24T08:12:02.328Z,55.18
2017-06-24T08:13:03.589Z,55.2
2017-06-24T08:14:04.834Z,54.82
2017-06-24T08:15:06.126Z,54.24
2017-06-24T08:16:07.396Z,54.14
2017-06-24T08:17:08.693Z,53.39
2017-06-24T08:18:10.012Z,53.39
2017-06-24T08:19:11.271Z,52.62
2017-06-24T08:20:12.548Z,52.91
2017-06-24T08:21:13.835Z,53.37
2017-06-24T08:22:15.211Z,53.66
2017-06-24T08:23:16.625Z,53.37
2017-06-24T08:24:17.887Z,53.17
2017-06-24T08:25:19.210Z,53.39
2017-06-24T08:26:20.474Z,53.47
2017-06-24T08:27:21.741Z,53.47
2017-06-24T08:28:23.313Z,53.95
2017-06-24T08:29:24.570Z,54.33
2017-06-24T08:30:25.920Z,53.85
2017-06-24T08:31:27.193Z,54.33
2017-06-24T08:32:28.490Z,54.43
2017-06-24T08:33:29.757Z,54.33
2017-06-24T08:34:31.027Z,54.24
2017-06-24T08:35:32.265Z,54.11
2017-06-24T08:36:33.537Z,54.11
2017-06-24T08:37:34.859Z,54.4
2017-06-24T08:38:36.332Z,54.11
2017-06-24T08:39:37.627Z,54.69
2017-06-24T08:40:38.898Z,54.43
2017-06-24T08:41:40.154Z,54.33
2017-06-24T08:42:41.460Z,54.05
2017-06-24T08:43:42.846Z,53.56
2017-06-24T08:44:44.199Z,53.01
2017-06-24T08:45:45.571Z,52.53
2017-06-24T08:46:46.957Z,52.45
2017-06-24T08:47:48.287Z,51.97
2017-06-24T08:48:49.513Z,51.68
2017-06-24T08:49:50.870Z,51.42
2017-06-24T08:50:52.276Z,50.45
2017-06-24T08:51:53.550Z,50.45
2017-06-24T08:52:54.808Z,50.74
2017-06-24T08:53:56.104Z,50.16
2017-06-24T08:54:57.401Z,49.22
2017-06-24T08:55:58.717Z,48.93
2017-06-24T08:57:00.043Z,48.47
2017-06-24T08:58:01.343Z,49.22
2017-06-24T08:59:02.775Z,49.32
2017-06-24T09:00:04.192Z,48.76
2017-06-24T09:01:05.462Z,48.66
2017-06-24T09:02:06.720Z,48.08
2017-06-24T09:03:07.993Z,48.18
2017-06-24T09:04:09.261Z,48.44
2017-06-24T09:05:10.547Z,49.39
2017-06-24T09:06:11.882Z,50.65
2017-06-24T09:07:13.277Z,50.81
2017-06-24T09:08:14.598Z,50.91
2017-06-24T09:09:15.837Z,51.39
2017-06-24T09:10:17.133Z,51.1
2017-06-24T09:11:18.397Z,51.39
2017-06-24T09:12:19.833Z,51.01
2017-06-24T09:13:21.017Z,52.26
2017-06-24T09:14:22.278Z,52.14
2017-06-24T09:15:23.550Z,52.4
2017-06-24T09:16:24.872Z,53.85
2017-06-24T09:17:26.150Z,54.24
2017-06-24T09:18:27.450Z,54.72
2017-06-24T09:19:28.726Z,54.69
2017-06-24T09:20:29.992Z,54.98
2017-06-24T09:21:31.263Z,55.54
2017-06-24T09:22:32.586Z,55.24
2017-06-24T09:23:33.863Z,55.82
2017-06-24T09:24:35.208Z,56.4
2017-06-24T09:25:36.520Z,56.59
2017-06-24T09:26:37.796Z,56.59
2017-06-24T09:27:39.076Z,56.69
2017-06-24T09:28:40.419Z,56.76
2017-06-24T09:29:41.667Z,57.53
2017-06-24T09:30:42.924Z,57.53
2017-06-24T09:31:44.232Z,57.62
2017-06-24T09:32:45.532Z,58.4
2017-06-24T09:33:46.828Z,58.3
2017-06-24T09:34:48.127Z,58.3
2017-06-24T09:35:49.380Z,58.23
2017-06-24T09:36:50.708Z,57.37
2017-06-24T09:37:51.965Z,57.85
2017-06-24T09:38:53.202Z,57.46
2017-06-24T09:39:54.584Z,57.37
2017-06-24T09:40:55.889Z,56.69
2017-06-24T09:41:57.147Z,56.62
2017-06-24T09:42:58.417Z,56.14
2017-06-24T09:43:59.675Z,56.24
2017-06-24T09:45:00.978Z,56.33
2017-06-24T09:46:02.504Z,55.56
2017-06-24T09:47:03.776Z,55.85
2017-06-24T09:48:05.030Z,55.76
2017-06-24T09:49:06.297Z,55.56
2017-06-24T09:50:07.590Z,55.76
2017-06-24T09:51:08.927Z,55.85
2017-06-24T09:52:10.226Z,55.94
2017-06-24T09:53:11.560Z,55.46
2017-06-24T09:54:12.771Z,55.94
2017-06-24T09:55:14.140Z,56.91
2017-06-24T09:56:15.391Z,56.14
2017-06-24T09:57:16.680Z,55.94
2017-06-24T09:58:17.947Z,56.24
2017-06-24T09:59:19.222Z,56.24
2017-06-24T10:00:20.504Z,56.14
2017-06-24T10:01:21.774Z,56.24
2017-06-24T10:02:23.024Z,56.62
2017-06-24T10:03:24.369Z,56.62
2017-06-24T10:04:25.605Z,56.91
2017-06-24T10:05:26.849Z,57.37
2017-06-24T10:06:28.111Z,57.65
2017-06-24T10:07:29.450Z,58.33
2017-06-24T10:08:30.655Z,58.33
2017-06-24T10:09:31.982Z,58.69
2017-06-24T10:10:33.233Z,58.4
2017-06-24T10:11:34.648Z,58.97
2017-06-24T10:12:35.887Z,58.81
2017-06-24T10:13:37.162Z,58.69
2017-06-24T10:14:38.481Z,59.36
2017-06-24T10:15:39.742Z,59.36
2017-06-24T10:16:41.076Z,59.07
2017-06-24T10:17:42.323Z,59.55
2017-06-24T10:18:43.571Z,59.75
2017-06-24T10:19:44.839Z,60.13
2017-06-24T10:20:46.160Z,60.77
2017-06-24T10:21:47.506Z,61.55
2017-06-24T10:22:48.765Z,61.74
2017-06-24T10:23:50.044Z,61.65
2017-06-24T10:24:51.341Z,62.22
2017-06-24T10:25:52.629Z,61.83
2017-06-24T10:26:54.043Z,62.03
2017-06-24T10:27:55.329Z,62.6
2017-06-24T10:28:56.656Z,62.6
2017-06-24T10:29:57.892Z,63.67
2017-06-24T10:30:59.159Z,64.82
2017-06-24T10:32:00.526Z,64.69
2017-06-24T10:33:01.800Z,65.85
2017-06-24T10:34:03.118Z,65.66
2017-06-24T10:35:04.405Z,65.46
2017-06-24T10:36:05.682Z,65.85
2017-06-24T10:37:06.938Z,65.56
2017-06-24T10:38:08.233Z,64.98
2017-06-24T10:39:09.488Z,64.53
2017-06-24T10:40:10.741Z,65.01
2017-06-24T10:41:12.056Z,65.4
2017-06-24T10:42:13.325Z,65.69
2017-06-24T10:43:14.676Z,66.07
2017-06-24T10:44:16.028Z,65.69
2017-06-24T10:45:17.326Z,65.69
2017-06-24T10:46:18.617Z,65.5
2017-06-24T10:47:19.851Z,65.69
2017-06-24T10:48:21.261Z,64.92
2017-06-24T10:49:22.724Z,64.63
2017-06-24T10:50:23.955Z,64.08
2017-06-24T10:51:25.210Z,64.37
2017-06-24T10:52:26.509Z,63.89
2017-06-24T10:53:27.744Z,64.08
2017-06-24T10:54:29.006Z,64.28
2017-06-24T10:55:30.308Z,63.7
2017-06-24T10:56:31.687Z,63.5
2017-06-24T10:57:32.930Z,63.6
2017-06-24T10:58:34.236Z,63.7
2017-06-24T10:59:35.480Z,63.98
2017-06-24T11:00:36.871Z,63.6
2017-06-24T11:01:38.138Z,63.41
2017-06-24T11:02:39.393Z,62.96
2017-06-24T11:03:40.686Z,62.18
2017-06-24T11:04:41.962Z,61.71
2017-06-24T11:05:43.204Z,61.06
2017-06-24T11:06:44.627Z,60.86
2017-06-24T11:07:45.923Z,60.77
2017-06-24T11:08:47.157Z,60.1
2017-06-24T11:09:48.410Z,59.64
2017-06-24T11:10:49.690Z,59.74
2017-06-24T11:11:50.975Z,59.06
2017-06-24T11:12:52.360Z,58.8
2017-06-24T11:13:53.636Z,58.12
2017-06-24T11:14:54.915Z,58.42
2017-06-24T11:15:56.218Z,58.51
2017-06-24T11:16:57.612Z,58.48
2017-06-24T11:17:58.937Z,58.51
2017-06-24T11:19:00.246Z,58.19
2017-06-24T11:20:01.510Z,59.06
2017-06-24T11:21:02.788Z,58.58
2017-06-24T11:22:04.051Z,59.71
2017-06-24T11:23:05.297Z,60.31
2017-06-24T11:24:06.655Z,59.83
2017-06-24T11:25:07.956Z,60.38
2017-06-24T11:26:09.223Z,60.19
2017-06-24T11:27:10.489Z,60.48
2017-06-24T11:28:11.765Z,60.96
2017-06-24T11:29:13.002Z,60.86
2017-06-24T11:30:14.391Z,60.58
2017-06-24T11:31:15.682Z,59.64
2017-06-24T11:32:16.999Z,60.22
2017-06-24T11:33:18.252Z,59.74
2017-06-24T11:34:19.545Z,60.48
2017-06-24T11:35:20.888Z,60.28
2017-06-24T11:36:22.235Z,60.77
2017-06-24T11:37:23.506Z,60.86
2017-06-24T11:38:24.769Z,61.51
2017-06-24T11:39:26.052Z,61.9
2017-06-24T11:40:27.463Z,62.18
2017-06-24T11:41:28.719Z,62.57
2017-06-24T11:42:30.065Z,62.93
2017-06-24T11:43:31.318Z,63.31
2017-06-24T11:44:32.604Z,63.24
2017-06-24T11:45:33.811Z,63.24
2017-06-24T11:46:35.115Z,63.12
2017-06-24T11:47:36.352Z,63.79
2017-06-24T11:48:37.622Z,63.98
2017-06-24T11:49:38.906Z,63.6
2017-06-24T11:50:40.167Z,63.5
2017-06-24T11:51:41.412Z,63.98
2017-06-24T11:52:42.833Z,63.5
2017-06-24T11:53:44.131Z,63.44
2017-06-24T11:54:45.477Z,63.34
2017-06-24T11:55:46.748Z,63.34
2017-06-24T11:56:48.030Z,62.48
2017-06-24T11:57:49.278Z,62.38
2017-06-24T11:58:50.625Z,62.28
2017-06-24T11:59:51.894Z,62.38
2017-06-24T12:00:53.206Z,62.48
2017-06-24T12:01:54.452Z,62.48
2017-06-24T12:02:55.732Z,62.38
2017-06-24T12:03:57.047Z,62.48
2017-06-24T12:04:58.462Z,63.06
2017-06-24T12:05:59.674Z,63.24
2017-06-24T12:07:01.030Z,63.34
2017-06-24T12:08:02.300Z,63.24
2017-06-24T12:09:03.622Z,63.24
2017-06-24T12:10:04.918Z,63.54
2017-06-24T12:11:06.210Z,63.44
2017-06-24T12:12:07.471Z,63.41
2017-06-24T12:13:08.760Z,64.18
2017-06-24T12:14:10.081Z,64.28
2017-06-24T12:15:11.363Z,63.98
2017-06-24T12:16:12.726Z,63.98
2017-06-24T12:17:14.117Z,64.37
2017-06-24T12:18:15.377Z,64.66
2017-06-24T12:19:16.654Z,64.92
2017-06-24T12:20:17.894Z,64.92
2017-06-24T12:21:19.182Z,65.11
2017-06-24T12:22:20.439Z,65.2
2017-06-24T12:23:21.714Z,65.75
2017-06-24T12:24:23.041Z,66.42
2017-06-24T12:25:24.446Z,66.14
2017-06-24T12:26:25.711Z,66.17
2017-06-24T12:27:27.046Z,65.85
2017-06-24T12:28:28.316Z,66.52
2017-06-24T12:29:29.572Z,66.33
2017-06-24T12:30:30.857Z,66.52
2017-06-24T12:31:32.150Z,67
2017-06-24T12:32:33.444Z,66.91
2017-06-24T12:33:34.682Z,66.81
2017-06-24T12:34:35.979Z,66.91
2017-06-24T12:35:37.282Z,66.81
2017-06-24T12:36:38.616Z,67
2017-06-24T12:37:39.880Z,66.91
2017-06-24T12:38:41.135Z,67.19
2017-06-24T12:39:42.419Z,67.58
2017-06-24T12:40:43.686Z,67.39
2017-06-24T12:41:44.969Z,67.19
2017-06-24T12:42:46.216Z,68.06
2017-06-24T12:43:47.585Z,67.87
2017-06-24T12:44:48.949Z,68.03
2017-06-24T12:45:50.234Z,67.77
2017-06-24T12:46:51.483Z,67.29
2017-06-24T12:47:52.861Z,67.29
2017-06-24T12:48:54.367Z,67.1
2017-06-24T12:49:55.743Z,66.91
2017-06-24T12:50:56.998Z,66.91
2017-06-24T12:51:58.282Z,66.42
2017-06-24T12:52:59.536Z,66.71
2017-06-24T12:54:00.816Z,66.24
2017-06-24T12:55:02.115Z,66.27
2017-06-24T12:56:03.384Z,66.65
2017-06-24T12:57:04.697Z,66.75
2017-06-24T12:58:05.981Z,65.78
2017-06-24T12:59:07.271Z,65.98
2017-06-24T13:00:08.763Z,65.88
2017-06-24T13:01:10.052Z,65.88
2017-06-24T13:02:11.284Z,65.88
2017-06-24T13:03:12.554Z,66.71
2017-06-24T13:04:13.827Z,66.46
2017-06-24T13:05:15.152Z,66.71
2017-06-24T13:06:16.437Z,66.81
2017-06-24T13:07:17.778Z,66.91
2017-06-24T13:08:19.031Z,67
2017-06-24T13:09:20.322Z,66.81
2017-06-24T13:10:21.598Z,67
2017-06-24T13:11:22.913Z,66.62
2017-06-24T13:12:24.159Z,66.65
2017-06-24T13:13:25.490Z,66.75